sensor_id;sensor_type;location;lat;lon;timestamp;P1;durP1;ratioP1;P2;durP2;ratioP2
40595;SDS011;26304;48.794;9.820;2023-04-24T00:03:31;1.40;;;0.90;;
40595;SDS011;26304;48.794;9.820;2023-04-24T00:09:13;1.00;;;1.00;;
40595;SDS011;26304;48.794;9.820;2023-04-24T00:14:56;0.77;;;0.77;;
40595;SDS011;26304;48.794;9.820;2023-04-24T00:20:40;0.90;;;0.90;;
40595;SDS011;26304;48.794;9.820;2023-04-24T00:26:24;1.25;;;0.98;;
40595;SDS011;26304;48.794;9.820;2023-04-24T00:32:06;0.90;;;0.90;;
40595;SDS011;26304;48.794;9.820;2023-04-24T00:37:50;0.70;;;0.70;;
40595;SDS011;26304;48.794;9.820;2023-04-24T00:43:33;0.70;;;0.70;;
40595;SDS011;26304;48.794;9.820;2023-04-24T00:49:15;0.70;;;0.70;;
40595;SDS011;26304;48.794;9.820;2023-04-24T00:54:59;0.80;;;0.80;;
40595;SDS011;26304;48.794;9.820;2023-04-24T01:00:41;1.67;;;0.93;;
40595;SDS011;26304;48.794;9.820;2023-04-24T01:06:26;0.80;;;0.80;;
40595;SDS011;26304;48.794;9.820;2023-04-24T01:12:13;0.60;;;0.60;;
40595;SDS011;26304;48.794;9.820;2023-04-24T01:17:55;0.80;;;0.80;;
40595;SDS011;26304;48.794;9.820;2023-04-24T01:23:39;0.80;;;0.80;;
40595;SDS011;26304;48.794;9.820;2023-04-24T01:29:22;0.80;;;0.80;;
40595;SDS011;26304;48.794;9.820;2023-04-24T01:35:05;0.50;;;0.50;;
40595;SDS011;26304;48.794;9.820;2023-04-24T01:40:50;0.70;;;0.70;;
40595;SDS011;26304;48.794;9.820;2023-04-24T01:46:33;0.68;;;0.68;;
40595;SDS011;26304;48.794;9.820;2023-04-24T01:52:16;1.17;;;0.80;;
40595;SDS011;26304;48.794;9.820;2023-04-24T01:58:00;0.65;;;0.65;;
40595;SDS011;26304;48.794;9.820;2023-04-24T02:03:43;0.50;;;0.50;;
40595;SDS011;26304;48.794;9.820;2023-04-24T02:09:25;0.77;;;0.60;;
40595;SDS011;26304;48.794;9.820;2023-04-24T02:15:10;0.47;;;0.47;;
40595;SDS011;26304;48.794;9.820;2023-04-24T02:20:53;0.70;;;0.70;;
40595;SDS011;26304;48.794;9.820;2023-04-24T02:26:35;0.40;;;0.40;;
40595;SDS011;26304;48.794;9.820;2023-04-24T02:32:19;0.50;;;0.50;;
40595;SDS011;26304;48.794;9.820;2023-04-24T02:38:01;0.52;;;0.50;;
40595;SDS011;26304;48.794;9.820;2023-04-24T02:43:44;0.50;;;0.50;;
40595;SDS011;26304;48.794;9.820;2023-04-24T02:49:27;0.55;;;0.55;;
40595;SDS011;26304;48.794;9.820;2023-04-24T02:55:10;0.70;;;0.70;;
40595;SDS011;26304;48.794;9.820;2023-04-24T03:00:53;0.55;;;0.50;;
40595;SDS011;26304;48.794;9.820;2023-04-24T03:06:38;0.50;;;0.50;;
40595;SDS011;26304;48.794;9.820;2023-04-24T03:12:20;0.57;;;0.55;;
40595;SDS011;26304;48.794;9.820;2023-04-24T03:18:04;0.70;;;0.63;;
40595;SDS011;26304;48.794;9.820;2023-04-24T03:23:48;0.75;;;0.60;;
40595;SDS011;26304;48.794;9.820;2023-04-24T03:29:30;1.67;;;0.60;;
40595;SDS011;26304;48.794;9.820;2023-04-24T03:35:13;2.15;;;0.60;;
40595;SDS011;26304;48.794;9.820;2023-04-24T03:40:56;1.98;;;0.60;;
40595;SDS011;26304;48.794;9.820;2023-04-24T03:46:39;0.50;;;0.50;;
40595;SDS011;26304;48.794;9.820;2023-04-24T03:52:21;2.30;;;0.70;;
40595;SDS011;26304;48.794;9.820;2023-04-24T03:58:05;4.18;;;0.90;;
40595;SDS011;26304;48.794;9.820;2023-04-24T04:03:47;0.40;;;0.40;;
40595;SDS011;26304;48.794;9.820;2023-04-24T04:09:29;1.60;;;0.52;;
40595;SDS011;26304;48.794;9.820;2023-04-24T04:15:14;2.30;;;0.82;;
40595;SDS011;26304;48.794;9.820;2023-04-24T04:20:57;1.75;;;0.50;;
40595;SDS011;26304;48.794;9.820;2023-04-24T04:26:39;0.88;;;0.70;;
40595;SDS011;26304;48.794;9.820;2023-04-24T04:32:23;1.00;;;0.50;;
40595;SDS011;26304;48.794;9.820;2023-04-24T04:38:05;2.17;;;1.00;;
40595;SDS011;26304;48.794;9.820;2023-04-24T04:43:49;1.90;;;0.70;;
40595;SDS011;26304;48.794;9.820;2023-04-24T04:49:32;2.55;;;0.90;;
40595;SDS011;26304;48.794;9.820;2023-04-24T04:55:15;2.92;;;1.00;;
40595;SDS011;26304;48.794;9.820;2023-04-24T05:00:59;3.90;;;1.15;;
40595;SDS011;26304;48.794;9.820;2023-04-24T05:06:42;1.48;;;0.90;;
40595;SDS011;26304;48.794;9.820;2023-04-24T05:12:25;3.28;;;0.90;;
40595;SDS011;26304;48.794;9.820;2023-04-24T05:18:08;3.70;;;1.00;;
40595;SDS011;26304;48.794;9.820;2023-04-24T05:23:51;3.53;;;1.02;;
40595;SDS011;26304;48.794;9.820;2023-04-24T05:29:34;6.35;;;1.00;;
40595;SDS011;26304;48.794;9.820;2023-04-24T05:35:16;3.60;;;1.02;;
40595;SDS011;26304;48.794;9.820;2023-04-24T05:41:01;2.83;;;1.13;;
40595;SDS011;26304;48.794;9.820;2023-04-24T05:46:43;3.33;;;0.90;;
40595;SDS011;26304;48.794;9.820;2023-04-24T05:52:25;1.52;;;1.00;;
40595;SDS011;26304;48.794;9.820;2023-04-24T05:58:09;3.00;;;1.52;;
40595;SDS011;26304;48.794;9.820;2023-04-24T06:03:52;2.95;;;1.02;;
40595;SDS011;26304;48.794;9.820;2023-04-24T06:09:34;3.70;;;1.00;;
40595;SDS011;26304;48.794;9.820;2023-04-24T06:15:18;2.45;;;0.90;;
40595;SDS011;26304;48.794;9.820;2023-04-24T06:21:01;2.65;;;0.90;;
40595;SDS011;26304;48.794;9.820;2023-04-24T06:26:44;0.77;;;0.73;;
40595;SDS011;26304;48.794;9.820;2023-04-24T06:32:28;1.15;;;0.85;;
40595;SDS011;26304;48.794;9.820;2023-04-24T06:38:11;3.03;;;1.30;;
40595;SDS011;26304;48.794;9.820;2023-04-24T06:43:54;2.50;;;0.80;;
40595;SDS011;26304;48.794;9.820;2023-04-24T06:49:37;1.50;;;0.93;;
40595;SDS011;26304;48.794;9.820;2023-04-24T06:55:20;1.10;;;1.00;;
40595;SDS011;26304;48.794;9.820;2023-04-24T07:01:02;2.85;;;0.80;;
40595;SDS011;26304;48.794;9.820;2023-04-24T07:06:46;0.98;;;0.80;;
40595;SDS011;26304;48.794;9.820;2023-04-24T07:12:29;1.73;;;0.80;;
40595;SDS011;26304;48.794;9.820;2023-04-24T07:18:12;1.50;;;1.00;;
40595;SDS011;26304;48.794;9.820;2023-04-24T07:23:56;1.27;;;0.88;;
40595;SDS011;26304;48.794;9.820;2023-04-24T07:29:38;1.33;;;0.90;;
40595;SDS011;26304;48.794;9.820;2023-04-24T07:35:21;1.15;;;0.93;;
40595;SDS011;26304;48.794;9.820;2023-04-24T07:41:05;0.77;;;0.73;;
40595;SDS011;26304;48.794;9.820;2023-04-24T07:46:47;1.05;;;0.60;;
40595;SDS011;26304;48.794;9.820;2023-04-24T07:52:29;1.33;;;0.90;;
40595;SDS011;26304;48.794;9.820;2023-04-24T07:58:13;1.20;;;0.73;;
40595;SDS011;26304;48.794;9.820;2023-04-24T08:03:56;0.80;;;0.65;;
40595;SDS011;26304;48.794;9.820;2023-04-24T08:09:38;1.50;;;0.80;;
40595;SDS011;26304;48.794;9.820;2023-04-24T08:15:22;0.68;;;0.55;;
40595;SDS011;26304;48.794;9.820;2023-04-24T08:21:04;0.70;;;0.60;;
40595;SDS011;26304;48.794;9.820;2023-04-24T08:26:47;0.68;;;0.60;;
40595;SDS011;26304;48.794;9.820;2023-04-24T08:32:32;1.23;;;0.70;;
40595;SDS011;26304;48.794;9.820;2023-04-24T08:38:14;1.13;;;0.80;;
40595;SDS011;26304;48.794;9.820;2023-04-24T08:43:57;0.73;;;0.70;;
40595;SDS011;26304;48.794;9.820;2023-04-24T08:49:41;0.80;;;0.55;;
40595;SDS011;26304;48.794;9.820;2023-04-24T08:55:26;0.55;;;0.55;;
40595;SDS011;26304;48.794;9.820;2023-04-24T09:01:11;0.63;;;0.63;;
40595;SDS011;26304;48.794;9.820;2023-04-24T09:06:56;0.52;;;0.50;;
40595;SDS011;26304;48.794;9.820;2023-04-24T09:12:40;1.00;;;0.73;;
40595;SDS011;26304;48.794;9.820;2023-04-24T09:18:23;0.50;;;0.50;;
40595;SDS011;26304;48.794;9.820;2023-04-24T09:24:07;1.92;;;0.75;;
40595;SDS011;26304;48.794;9.820;2023-04-24T09:30:01;0.73;;;0.70;;
40595;SDS011;26304;48.794;9.820;2023-04-24T09:35:50;0.60;;;0.60;;
40595;SDS011;26304;48.794;9.820;2023-04-24T09:41:34;0.60;;;0.60;;
40595;SDS011;26304;48.794;9.820;2023-04-24T09:47:16;0.57;;;0.57;;
40595;SDS011;26304;48.794;9.820;2023-04-24T09:52:59;0.70;;;0.70;;
40595;SDS011;26304;48.794;9.820;2023-04-24T09:58:45;2.47;;;1.05;;
40595;SDS011;26304;48.794;9.820;2023-04-24T10:04:28;3.40;;;1.20;;
40595;SDS011;26304;48.794;9.820;2023-04-24T10:10:11;2.95;;;0.88;;
40595;SDS011;26304;48.794;9.820;2023-04-24T10:15:55;1.60;;;0.80;;
40595;SDS011;26304;48.794;9.820;2023-04-24T10:21:38;0.90;;;0.77;;
40595;SDS011;26304;48.794;9.820;2023-04-24T10:27:23;0.95;;;0.90;;
40595;SDS011;26304;48.794;9.820;2023-04-24T10:33:09;0.82;;;0.82;;
40595;SDS011;26304;48.794;9.820;2023-04-24T10:38:54;1.88;;;0.70;;
40595;SDS011;26304;48.794;9.820;2023-04-24T10:44:39;1.95;;;0.80;;
40595;SDS011;26304;48.794;9.820;2023-04-24T10:50:23;2.17;;;1.00;;
40595;SDS011;26304;48.794;9.820;2023-04-24T10:56:07;2.20;;;1.10;;
40595;SDS011;26304;48.794;9.820;2023-04-24T11:01:52;1.25;;;0.80;;
40595;SDS011;26304;48.794;9.820;2023-04-24T11:14:08;2.35;;;1.00;;
40595;SDS011;26304;48.794;9.820;2023-04-24T11:19:50;2.53;;;1.05;;
40595;SDS011;26304;48.794;9.820;2023-04-24T11:25:33;0.63;;;0.63;;
40595;SDS011;26304;48.794;9.820;2023-04-24T11:31:35;1.85;;;1.08;;
40595;SDS011;26304;48.794;9.820;2023-04-24T11:37:18;1.08;;;0.98;;
40595;SDS011;26304;48.794;9.820;2023-04-24T11:43:01;1.85;;;0.80;;
40595;SDS011;26304;48.794;9.820;2023-04-24T11:48:47;1.20;;;1.02;;
40595;SDS011;26304;48.794;9.820;2023-04-24T11:54:29;1.20;;;1.10;;
40595;SDS011;26304;48.794;9.820;2023-04-24T12:00:15;1.50;;;0.80;;
40595;SDS011;26304;48.794;9.820;2023-04-24T12:06:07;1.08;;;0.70;;
40595;SDS011;26304;48.794;9.820;2023-04-24T12:11:53;1.30;;;1.10;;
40595;SDS011;26304;48.794;9.820;2023-04-24T12:17:36;1.08;;;0.77;;
40595;SDS011;26304;48.794;9.820;2023-04-24T12:23:37;0.88;;;0.80;;
40595;SDS011;26304;48.794;9.820;2023-04-24T12:29:19;0.88;;;0.88;;
40595;SDS011;26304;48.794;9.820;2023-04-24T12:35:03;1.52;;;0.70;;
40595;SDS011;26304;48.794;9.820;2023-04-24T12:41:00;1.67;;;0.90;;
40595;SDS011;26304;48.794;9.820;2023-04-24T12:46:45;0.98;;;0.98;;
40595;SDS011;26304;48.794;9.820;2023-04-24T12:52:27;1.05;;;0.70;;
40595;SDS011;26304;48.794;9.820;2023-04-24T12:58:12;1.17;;;0.80;;
40595;SDS011;26304;48.794;9.820;2023-04-24T13:03:55;1.02;;;0.80;;
40595;SDS011;26304;48.794;9.820;2023-04-24T13:09:37;1.33;;;1.23;;
40595;SDS011;26304;48.794;9.820;2023-04-24T13:15:21;1.17;;;0.80;;
40595;SDS011;26304;48.794;9.820;2023-04-24T13:21:04;5.43;;;0.90;;
40595;SDS011;26304;48.794;9.820;2023-04-24T13:26:46;2.05;;;1.08;;
40595;SDS011;26304;48.794;9.820;2023-04-24T13:32:30;1.55;;;0.80;;
40595;SDS011;26304;48.794;9.820;2023-04-24T13:38:12;1.45;;;0.73;;
40595;SDS011;26304;48.794;9.820;2023-04-24T13:43:54;0.90;;;0.90;;
40595;SDS011;26304;48.794;9.820;2023-04-24T13:49:38;1.00;;;0.82;;
40595;SDS011;26304;48.794;9.820;2023-04-24T13:55:21;1.33;;;1.02;;
40595;SDS011;26304;48.794;9.820;2023-04-24T14:01:03;1.23;;;1.00;;
40595;SDS011;26304;48.794;9.820;2023-04-24T14:06:50;0.70;;;0.70;;
40595;SDS011;26304;48.794;9.820;2023-04-24T14:12:32;0.82;;;0.82;;
40595;SDS011;26304;48.794;9.820;2023-04-24T14:18:15;1.10;;;1.00;;
40595;SDS011;26304;48.794;9.820;2023-04-24T14:23:59;1.50;;;1.00;;
40595;SDS011;26304;48.794;9.820;2023-04-24T14:29:41;2.67;;;1.45;;
40595;SDS011;26304;48.794;9.820;2023-04-24T14:35:27;1.08;;;0.98;;
40595;SDS011;26304;48.794;9.820;2023-04-24T14:41:15;1.63;;;0.80;;
40595;SDS011;26304;48.794;9.820;2023-04-24T14:46:58;1.15;;;0.85;;
40595;SDS011;26304;48.794;9.820;2023-04-24T14:52:42;1.88;;;0.90;;
40595;SDS011;26304;48.794;9.820;2023-04-24T14:58:27;1.75;;;0.80;;
40595;SDS011;26304;48.794;9.820;2023-04-24T15:04:09;1.58;;;0.90;;
40595;SDS011;26304;48.794;9.820;2023-04-24T15:09:52;1.08;;;0.95;;
40595;SDS011;26304;48.794;9.820;2023-04-24T15:15:36;0.93;;;0.70;;
40595;SDS011;26304;48.794;9.820;2023-04-24T15:21:18;0.80;;;0.80;;
40595;SDS011;26304;48.794;9.820;2023-04-24T15:27:01;0.80;;;0.80;;
40595;SDS011;26304;48.794;9.820;2023-04-24T15:32:45;0.82;;;0.75;;
40595;SDS011;26304;48.794;9.820;2023-04-24T15:38:28;1.02;;;0.80;;
40595;SDS011;26304;48.794;9.820;2023-04-24T15:44:11;0.90;;;0.90;;
40595;SDS011;26304;48.794;9.820;2023-04-24T15:49:55;0.70;;;0.70;;
40595;SDS011;26304;48.794;9.820;2023-04-24T15:55:39;0.82;;;0.80;;
40595;SDS011;26304;48.794;9.820;2023-04-24T16:01:21;1.50;;;0.95;;
40595;SDS011;26304;48.794;9.820;2023-04-24T16:07:05;0.82;;;0.82;;
40595;SDS011;26304;48.794;9.820;2023-04-24T16:12:48;1.02;;;1.00;;
40595;SDS011;26304;48.794;9.820;2023-04-24T16:18:31;0.90;;;0.90;;
40595;SDS011;26304;48.794;9.820;2023-04-24T16:24:15;1.02;;;0.93;;
40595;SDS011;26304;48.794;9.820;2023-04-24T16:29:57;0.70;;;0.70;;
40595;SDS011;26304;48.794;9.820;2023-04-24T16:35:40;2.92;;;0.90;;
40595;SDS011;26304;48.794;9.820;2023-04-24T16:41:24;3.47;;;1.40;;
40595;SDS011;26304;48.794;9.820;2023-04-24T16:47:07;2.30;;;1.15;;
40595;SDS011;26304;48.794;9.820;2023-04-24T16:52:49;1.95;;;1.00;;
40595;SDS011;26304;48.794;9.820;2023-04-24T16:58:33;2.08;;;1.20;;
40595;SDS011;26304;48.794;9.820;2023-04-24T17:04:15;1.48;;;1.38;;
40595;SDS011;26304;48.794;9.820;2023-04-24T17:09:58;2.33;;;1.27;;
40595;SDS011;26304;48.794;9.820;2023-04-24T17:15:41;1.40;;;1.30;;
40595;SDS011;26304;48.794;9.820;2023-04-24T17:21:24;2.13;;;1.60;;
40595;SDS011;26304;48.794;9.820;2023-04-24T17:27:07;2.67;;;1.67;;
40595;SDS011;26304;48.794;9.820;2023-04-24T17:32:51;2.55;;;1.67;;
40595;SDS011;26304;48.794;9.820;2023-04-24T17:38:33;1.95;;;1.80;;
40595;SDS011;26304;48.794;9.820;2023-04-24T17:44:16;2.75;;;2.13;;
40595;SDS011;26304;48.794;9.820;2023-04-24T17:50:00;1.83;;;1.55;;
40595;SDS011;26304;48.794;9.820;2023-04-24T17:55:44;1.90;;;1.67;;
40595;SDS011;26304;48.794;9.820;2023-04-24T18:01:27;5.80;;;1.70;;
40595;SDS011;26304;48.794;9.820;2023-04-24T18:07:11;2.45;;;1.77;;
40595;SDS011;26304;48.794;9.820;2023-04-24T18:12:53;3.45;;;1.60;;
40595;SDS011;26304;48.794;9.820;2023-04-24T18:18:36;2.38;;;1.70;;
40595;SDS011;26304;48.794;9.820;2023-04-24T18:24:20;8.77;;;2.90;;
40595;SDS011;26304;48.794;9.820;2023-04-24T18:30:03;4.57;;;2.22;;
40595;SDS011;26304;48.794;9.820;2023-04-24T18:35:47;3.15;;;2.17;;
40595;SDS011;26304;48.794;9.820;2023-04-24T18:41:30;4.43;;;2.47;;
40595;SDS011;26304;48.794;9.820;2023-04-24T18:47:14;3.20;;;2.22;;
40595;SDS011;26304;48.794;9.820;2023-04-24T18:52:57;2.00;;;1.80;;
40595;SDS011;26304;48.794;9.820;2023-04-24T18:58:41;3.45;;;2.00;;
40595;SDS011;26304;48.794;9.820;2023-04-24T19:04:25;3.22;;;2.15;;
40595;SDS011;26304;48.794;9.820;2023-04-24T19:10:10;2.30;;;1.98;;
40595;SDS011;26304;48.794;9.820;2023-04-24T19:15:54;1.73;;;1.60;;
40595;SDS011;26304;48.794;9.820;2023-04-24T19:21:36;2.92;;;1.45;;
40595;SDS011;26304;48.794;9.820;2023-04-24T19:27:19;1.45;;;1.35;;
40595;SDS011;26304;48.794;9.820;2023-04-24T19:33:02;2.45;;;1.70;;
40595;SDS011;26304;48.794;9.820;2023-04-24T19:38:45;2.63;;;1.85;;
40595;SDS011;26304;48.794;9.820;2023-04-24T19:44:30;2.08;;;1.40;;
40595;SDS011;26304;48.794;9.820;2023-04-24T19:50:14;2.15;;;1.30;;
40595;SDS011;26304;48.794;9.820;2023-04-24T19:55:56;2.78;;;1.55;;
40595;SDS011;26304;48.794;9.820;2023-04-24T20:01:38;2.00;;;1.80;;
40595;SDS011;26304;48.794;9.820;2023-04-24T20:07:23;2.10;;;1.70;;
40595;SDS011;26304;48.794;9.820;2023-04-24T20:13:06;1.85;;;1.60;;
40595;SDS011;26304;48.794;9.820;2023-04-24T20:18:49;2.00;;;1.90;;
40595;SDS011;26304;48.794;9.820;2023-04-24T20:24:41;1.80;;;1.60;;
40595;SDS011;26304;48.794;9.820;2023-04-24T20:30:25;2.00;;;1.80;;
40595;SDS011;26304;48.794;9.820;2023-04-24T20:36:08;2.30;;;1.92;;
40595;SDS011;26304;48.794;9.820;2023-04-24T20:41:51;1.77;;;1.67;;
40595;SDS011;26304;48.794;9.820;2023-04-24T20:47:34;1.83;;;1.73;;
40595;SDS011;26304;48.794;9.820;2023-04-24T20:53:16;2.03;;;1.85;;
40595;SDS011;26304;48.794;9.820;2023-04-24T20:59:00;2.10;;;1.88;;
40595;SDS011;26304;48.794;9.820;2023-04-24T21:04:42;1.73;;;1.63;;
40595;SDS011;26304;48.794;9.820;2023-04-24T21:10:25;1.50;;;1.40;;
40595;SDS011;26304;48.794;9.820;2023-04-24T21:16:09;1.75;;;1.40;;
40595;SDS011;26304;48.794;9.820;2023-04-24T21:21:54;1.42;;;1.33;;
40595;SDS011;26304;48.794;9.820;2023-04-24T21:27:37;1.70;;;1.60;;
40595;SDS011;26304;48.794;9.820;2023-04-24T21:33:20;1.70;;;1.60;;
40595;SDS011;26304;48.794;9.820;2023-04-24T21:39:03;1.80;;;1.70;;
40595;SDS011;26304;48.794;9.820;2023-04-24T21:44:45;2.40;;;1.83;;
40595;SDS011;26304;48.794;9.820;2023-04-24T21:50:29;1.90;;;1.80;;
40595;SDS011;26304;48.794;9.820;2023-04-24T21:56:11;1.60;;;1.45;;
40595;SDS011;26304;48.794;9.820;2023-04-24T22:01:54;1.90;;;1.63;;
40595;SDS011;26304;48.794;9.820;2023-04-24T22:07:37;2.30;;;1.50;;
40595;SDS011;26304;48.794;9.820;2023-04-24T22:13:20;1.27;;;1.17;;
40595;SDS011;26304;48.794;9.820;2023-04-24T22:19:02;1.40;;;1.25;;
40595;SDS011;26304;48.794;9.820;2023-04-24T22:24:47;1.30;;;1.27;;
40595;SDS011;26304;48.794;9.820;2023-04-24T22:30:29;1.50;;;1.40;;
40595;SDS011;26304;48.794;9.820;2023-04-24T22:36:11;1.40;;;1.30;;
40595;SDS011;26304;48.794;9.820;2023-04-24T22:41:55;1.30;;;1.20;;
40595;SDS011;26304;48.794;9.820;2023-04-24T22:47:38;1.35;;;1.25;;
40595;SDS011;26304;48.794;9.820;2023-04-24T22:53:21;1.42;;;1.33;;
40595;SDS011;26304;48.794;9.820;2023-04-24T22:59:04;1.27;;;1.17;;
40595;SDS011;26304;48.794;9.820;2023-04-24T23:04:47;1.40;;;1.20;;
40595;SDS011;26304;48.794;9.820;2023-04-24T23:10:29;1.77;;;1.23;;
40595;SDS011;26304;48.794;9.820;2023-04-24T23:16:13;1.88;;;1.23;;
40595;SDS011;26304;48.794;9.820;2023-04-24T23:21:55;1.50;;;1.40;;
40595;SDS011;26304;48.794;9.820;2023-04-24T23:27:38;1.50;;;1.40;;
40595;SDS011;26304;48.794;9.820;2023-04-24T23:33:22;1.77;;;1.40;;
40595;SDS011;26304;48.794;9.820;2023-04-24T23:39:04;1.17;;;1.17;;
40595;SDS011;26304;48.794;9.820;2023-04-24T23:44:47;1.38;;;1.27;;
40595;SDS011;26304;48.794;9.820;2023-04-24T23:50:30;1.23;;;1.13;;
40595;SDS011;26304;48.794;9.820;2023-04-24T23:56:13;1.60;;;1.33;;
